Time;durP1;ratioP1;P1;durP2;ratioP2;P2;SDS_P1;SDS_P2;PMS_P1;PMS_P2;Temp;Humidity;BMP_temperature;BMP_pressure;BME280_temperature;BME280_humidity;BME280_pressure;Samples;Min_cycle;Max_cycle;Signal;HPM_P1;HPM_P2
2022/10/23 00:01:38;;;;;;;17.65;7.97;;;10.90;99.90;;;10.10;100.00;97142.03;6202379;23;20033;-69
2022/10/23 00:04:19;;;;;;;12.48;7.07;;;10.80;99.90;;;10.16;100.00;97133.97;6203021;23;20020;-69
2022/10/23 00:06:47;;;;;;;9.73;5.80;;;10.90;99.90;;;10.07;100.00;97130.06;6200979;23;20028;-69
2022/10/23 00:09:18;;;;;;;15.10;6.03;;;10.90;99.90;;;10.07;100.00;97124.88;6204033;23;20051;-69
2022/10/23 00:11:46;;;;;;;12.55;5.63;;;10.90;99.90;;;10.16;100.00;97127.03;6202541;23;20079;-69
2022/10/23 00:14:15;;;;;;;10.75;5.90;;;10.90;99.90;;;10.13;100.00;97126.34;6201943;23;20558;-69
2022/10/23 00:16:43;;;;;;;21.42;8.63;;;10.80;99.90;;;10.02;100.00;97125.09;6203205;23;20087;-69
2022/10/23 00:19:10;;;;;;;8.25;5.00;;;10.80;99.90;;;10.09;100.00;97125.63;6202617;23;20029;-69
2022/10/23 00:21:38;;;;;;;13.68;6.97;;;10.90;99.90;;;9.96;100.00;97124.53;6201431;23;20040;-70
2022/10/23 00:24:07;;;;;;;12.57;5.55;;;10.90;99.90;;;10.09;100.00;97127.41;6202070;23;20080;-70
2022/10/23 00:26:37;;;;;;;13.15;6.35;;;10.80;99.90;;;10.00;100.00;97124.31;6213863;23;20428;-69
2022/10/23 00:29:04;;;;;;;10.60;4.93;;;10.80;99.90;;;10.03;100.00;97125.91;6204123;23;20035;-70
2022/10/23 00:31:31;;;;;;;11.20;5.40;;;10.80;99.90;;;10.07;100.00;97111.06;6204192;23;20083;-69
2022/10/23 00:33:58;;;;;;;11.38;4.97;;;10.80;99.90;;;10.17;100.00;97112.28;6202210;23;20032;-70
2022/10/23 00:36:25;;;;;;;11.75;5.90;;;10.90;99.90;;;10.19;100.00;97106.09;6203897;23;20757;-69
2022/10/23 00:38:52;;;;;;;10.73;5.72;;;10.80;99.90;;;10.13;100.00;97108.19;6201095;23;20127;-69
2022/10/23 00:41:24;;;;;;;11.13;6.35;;;10.90;99.90;;;9.99;100.00;97112.28;6203199;23;20039;-69
2022/10/23 00:44:03;;;;;;;9.18;5.25;;;10.90;99.90;;;10.03;100.00;97115.53;6202382;23;20032;-69
2022/10/23 00:46:30;;;;;;;10.43;5.97;;;10.90;99.90;;;10.08;100.00;97107.53;6204960;23;20020;-69
2022/10/23 00:48:58;;;;;;;12.63;6.88;;;10.80;99.90;;;9.98;100.00;97110.59;6201088;23;20443;-69
2022/10/23 00:51:31;;;;;;;9.20;5.03;;;10.80;99.90;;;10.13;100.00;97103.00;6200658;23;20023;-69
2022/10/23 00:53:59;;;;;;;11.18;4.20;;;10.80;99.90;;;10.26;100.00;97091.09;6205254;23;20028;-69
2022/10/23 00:56:46;;;;;;;12.40;5.70;;;10.90;99.90;;;10.23;100.00;97096.44;6203662;23;20031;-69
2022/10/23 00:59:14;;;;;;;10.65;5.28;;;10.90;99.90;;;10.13;100.00;97092.63;6200472;23;20028;-69
2022/10/23 01:01:41;;;;;;;13.95;6.75;;;10.90;99.90;;;9.93;100.00;97106.53;6199253;23;20099;-70
2022/10/23 01:04:09;;;;;;;8.40;4.40;;;10.80;99.90;;;10.05;100.00;97098.16;6206612;23;20046;-69
2022/10/23 01:06:57;;;;;;;14.50;5.65;;;10.90;99.90;;;10.11;100.00;97094.44;6201717;23;20085;-69
2022/10/23 01:09:37;;;;;;;9.90;4.40;;;10.90;99.90;;;10.29;100.00;97092.75;6214117;23;20362;-69
2022/10/23 01:12:15;;;;;;;32.25;21.27;;;10.90;99.90;;;10.03;100.00;97100.84;6212897;23;20082;-70
2022/10/23 01:15:00;;;;;;;12.65;8.27;;;10.90;99.90;;;9.89;100.00;97099.81;6202472;23;20074;-69
2022/10/23 01:17:48;;;;;;;16.70;6.80;;;10.90;99.90;;;9.98;100.00;97086.41;6202344;23;20025;-69
2022/10/23 01:21:02;;;;;;;11.35;4.70;;;10.90;99.90;;;10.17;100.00;97078.56;6200768;23;20047;-69
2022/10/23 01:24:09;;;;;;;11.13;8.43;;;10.90;99.90;;;10.26;100.00;97085.91;6202695;23;20102;-69
2022/10/23 01:26:58;;;;;;;68.82;53.75;;;10.90;99.90;;;10.00;100.00;97090.59;6202820;23;20032;-69
2022/10/23 01:29:30;;;;;;;36.75;28.52;;;10.90;99.90;;;10.12;100.00;97093.53;6204815;23;20027;-69
2022/10/23 01:32:12;;;;;;;22.50;13.43;;;10.90;99.90;;;10.15;100.00;97083.00;6215164;23;20071;-69
2022/10/23 01:35:13;;;;;;;21.02;14.63;;;10.80;99.90;;;10.22;100.00;97072.25;6202933;23;20449;-69
2022/10/23 01:37:52;;;;;;;17.75;10.60;;;10.80;99.90;;;10.11;100.00;97076.31;6226253;23;20021;-69
2022/10/23 01:40:41;;;;;;;17.15;8.93;;;10.90;99.90;;;10.04;100.00;97074.00;6204107;23;20479;-69
2022/10/23 01:43:16;;;;;;;18.27;8.77;;;10.90;99.90;;;9.93;100.00;97080.63;6205160;23;20021;-69
2022/10/23 01:45:58;;;;;;;12.15;6.80;;;10.80;99.90;;;9.72;100.00;97077.31;6203658;23;20078;-69
2022/10/23 01:48:28;;;;;;;11.95;5.95;;;10.80;99.90;;;9.60;100.00;97084.72;6204231;23;20031;-69
2022/10/23 01:51:02;;;;;;;14.02;5.20;;;10.80;99.90;;;9.78;100.00;97077.00;6204900;23;20025;-69
2022/10/23 01:53:33;;;;;;;12.05;5.03;;;10.70;99.90;;;9.69;100.00;97082.59;6203206;23;20115;-69
2022/10/23 01:56:02;;;;;;;10.50;3.83;;;10.70;99.90;;;9.93;100.00;97073.69;6204212;23;20032;-69
2022/10/23 01:58:31;;;;;;;12.57;4.05;;;10.70;99.90;;;10.02;100.00;97072.41;6205050;23;20100;-69
2022/10/23 02:01:02;;;;;;;11.35;3.58;;;10.70;99.90;;;10.11;100.00;97063.34;6204679;23;20028;-69
2022/10/23 02:03:32;;;;;;;8.70;3.88;;;10.70;99.90;;;10.06;100.00;97063.56;6202199;23;20397;-69
2022/10/23 02:05:59;;;;;;;11.43;3.90;;;10.80;99.90;;;10.07;100.00;97057.44;6204133;23;20589;-69
2022/10/23 02:08:26;;;;;;;10.13;4.20;;;10.80;99.90;;;9.94;100.00;97061.53;6205206;23;20028;-69
2022/10/23 02:11:14;;;;;;;11.65;4.82;;;10.70;99.90;;;9.81;100.00;97058.72;6205613;23;20024;-69
2022/10/23 02:13:47;;;;;;;8.38;4.32;;;10.60;99.90;;;9.94;100.00;97052.00;6205288;23;20036;-69
2022/10/23 02:16:28;;;;;;;9.23;4.43;;;10.60;99.90;;;9.99;100.00;97050.06;6203985;23;20132;-69
2022/10/23 02:19:12;;;;;;;10.40;4.10;;;10.60;99.90;;;9.99;100.00;97041.41;6204569;23;20803;-69
2022/10/23 02:21:51;;;;;;;14.80;5.68;;;10.60;99.90;;;9.91;100.00;97040.97;6203801;23;20028;-69
2022/10/23 02:24:33;;;;;;;12.73;5.72;;;10.70;99.90;;;9.88;100.00;97039.38;6204806;23;20028;-69
2022/10/23 02:27:12;;;;;;;12.05;5.07;;;10.70;99.90;;;9.82;100.00;97034.47;6203099;23;20025;-69
2022/10/23 02:29:49;;;;;;;11.45;4.35;;;10.70;99.90;;;9.92;100.00;97040.03;6202734;23;20020;-69
2022/10/23 02:32:19;;;;;;;9.23;4.82;;;10.60;99.90;;;9.86;100.00;97025.63;6203058;23;20021;-69
2022/10/23 02:34:46;;;;;;;12.13;4.32;;;10.60;99.90;;;10.01;100.00;97031.81;6205511;23;20028;-69
2022/10/23 02:37:14;;;;;;;14.73;5.88;;;10.70;99.90;;;9.86;100.00;97035.16;6202901;23;20356;-69
2022/10/23 02:39:41;;;;;;;12.05;5.10;;;10.60;99.90;;;10.01;100.00;97027.47;6203893;23;20110;-69
2022/10/23 02:42:26;;;;;;;9.65;3.95;;;10.60;99.90;;;10.07;100.00;97018.56;6203536;23;20111;-69
2022/10/23 02:45:20;;;;;;;12.20;4.28;;;10.70;99.90;;;9.94;100.00;97020.06;6205965;23;20047;-69
2022/10/23 02:48:20;;;;;;;10.20;4.30;;;10.70;99.90;;;10.01;100.00;97013.66;6202246;23;20016;-69
2022/10/23 02:51:06;;;;;;;12.98;4.93;;;10.80;99.90;;;9.92;100.00;97012.38;6203080;23;20052;-69
2022/10/23 02:54:01;;;;;;;14.13;4.45;;;10.80;99.90;;;9.90;100.00;97009.03;6201993;23;20187;-69
2022/10/23 02:57:05;;;;;;;10.90;3.70;;;10.70;99.90;;;9.97;100.00;97007.81;6212454;23;20103;-69
2022/10/23 02:59:48;;;;;;;9.40;4.28;;;10.70;99.90;;;9.91;100.00;97008.09;6202818;23;20051;-69
2022/10/23 03:02:39;;;;;;;11.95;5.72;;;10.60;99.90;;;9.72;100.00;97004.75;6202987;23;20059;-69
2022/10/23 03:05:11;;;;;;;11.73;4.57;;;10.60;99.90;;;9.90;100.00;97003.84;6205067;23;20039;-69
2022/10/23 03:07:39;;;;;;;13.60;5.17;;;10.60;99.90;;;10.02;100.00;96997.19;6203221;23;20111;-69
2022/10/23 03:10:08;;;;;;;10.02;4.75;;;10.70;99.90;;;10.01;100.00;97000.69;6203643;23;20021;-69
2022/10/23 03:12:35;;;;;;;12.73;6.22;;;10.60;99.90;;;9.92;100.00;96993.38;6201472;23;20035;-69
2022/10/23 03:15:04;;;;;;;13.65;6.20;;;10.60;99.90;;;9.81;100.00;96992.16;6202686;23;20024;-69
2022/10/23 03:17:31;;;;;;;13.13;6.45;;;10.60;99.90;;;9.71;100.00;96996.09;6204346;23;20043;-69
2022/10/23 03:19:58;;;;;;;13.88;6.45;;;10.60;99.90;;;9.52;100.00;97003.91;6203107;23;20028;-69
2022/10/23 03:22:25;;;;;;;17.23;7.63;;;10.60;99.90;;;9.44;100.00;97016.38;6204409;23;20114;-69
2022/10/23 03:24:52;;;;;;;11.45;6.38;;;10.50;99.90;;;9.43;100.00;97020.72;6201340;23;20028;-69
2022/10/23 03:27:19;;;;;;;15.45;6.63;;;10.40;99.90;;;9.48;100.00;97022.28;6204895;23;20021;-70
2022/10/23 03:29:46;;;;;;;12.88;6.13;;;10.40;99.90;;;9.30;100.00;97018.78;6204623;23;20461;-69
2022/10/23 03:32:13;;;;;;;9.13;4.40;;;10.30;99.90;;;9.53;100.00;97026.31;6201083;23;20028;-69
2022/10/23 03:34:39;;;;;;;15.98;4.43;;;10.30;99.90;;;9.60;100.00;97006.13;6203578;23;20021;-69
2022/10/23 03:37:06;;;;;;;12.95;4.15;;;10.30;99.90;;;9.64;100.00;96997.31;6205019;23;20016;-69
2022/10/23 03:39:33;;;;;;;16.95;5.63;;;10.30;99.90;;;9.56;100.00;96991.69;6203787;23;20017;-69
2022/10/23 03:42:00;;;;;;;16.67;6.25;;;10.30;99.90;;;9.45;100.00;97002.53;6201905;23;20017;-69
2022/10/23 03:44:29;;;;;;;10.00;4.47;;;10.30;99.90;;;9.46;100.00;97000.78;6204548;23;20020;-69
2022/10/23 03:46:57;;;;;;;9.68;4.47;;;10.20;99.90;;;9.51;100.00;96991.91;6202966;23;20347;-69
2022/10/23 03:49:24;;;;;;;14.90;4.75;;;10.20;99.90;;;9.64;100.00;96977.41;6203042;23;20044;-69
2022/10/23 03:51:51;;;;;;;16.83;4.30;;;10.20;99.90;;;9.63;100.00;96972.31;6202702;23;20024;-69
2022/10/23 03:54:24;;;;;;;6.90;3.83;;;10.20;99.90;;;9.66;100.00;96987.72;6177692;23;20029;-70
2022/10/23 03:56:53;;;;;;;19.75;6.05;;;10.20;99.90;;;9.62;100.00;96987.03;6201502;23;20028;-69
2022/10/23 03:59:23;;;;;;;10.15;4.00;;;10.20;99.90;;;9.57;100.00;96978.63;6204120;23;20070;-70
2022/10/23 04:01:50;;;;;;;12.27;4.63;;;10.20;99.90;;;9.55;100.00;96966.66;6203903;23;20028;-69
2022/10/23 04:04:17;;;;;;;16.67;4.95;;;10.10;99.90;;;9.48;100.00;96968.72;6203316;23;20020;-69
2022/10/23 04:06:44;;;;;;;12.35;4.63;;;10.10;99.90;;;9.39;100.00;96967.38;6203915;23;20108;-69
2022/10/23 04:09:11;;;;;;;10.77;4.53;;;10.10;99.90;;;9.35;100.00;96965.03;6214054;23;20096;-69
2022/10/23 04:11:43;;;;;;;8.57;4.95;;;10.10;99.90;;;9.32;100.00;96970.34;6203688;23;20024;-69
2022/10/23 04:14:12;;;;;;;10.88;5.13;;;10.00;99.90;;;9.27;100.00;96972.31;6204297;23;20021;-70
2022/10/23 04:16:39;;;;;;;13.95;4.38;;;10.00;99.90;;;9.38;100.00;96980.44;6202020;23;20025;-69
2022/10/23 04:19:06;;;;;;;8.43;4.55;;;10.00;99.90;;;9.26;100.00;96989.63;6203687;23;20040;-69
2022/10/23 04:21:33;;;;;;;13.93;5.47;;;10.00;99.90;;;9.28;100.00;96985.19;6200888;23;20048;-69
2022/10/23 04:24:00;;;;;;;13.20;5.07;;;10.00;99.90;;;9.40;100.00;96981.19;6203636;23;20685;-69
2022/10/23 04:26:27;;;;;;;12.02;5.00;;;10.10;99.90;;;9.42;100.00;96980.22;6204282;23;20024;-69
2022/10/23 04:28:54;;;;;;;10.93;4.38;;;10.20;99.90;;;9.60;100.00;96982.81;6205832;23;20027;-69
2022/10/23 04:31:21;;;;;;;9.80;5.00;;;10.30;99.90;;;9.58;100.00;96982.06;6206583;23;20017;-70
2022/10/23 04:33:48;;;;;;;8.52;3.70;;;10.40;99.90;;;9.71;100.00;96982.31;6204420;23;20043;-69
2022/10/23 04:36:14;;;;;;;13.98;4.68;;;10.40;99.90;;;9.68;100.00;96988.47;6206853;23;20042;-69
2022/10/23 04:38:41;;;;;;;13.98;5.30;;;10.40;99.90;;;9.60;100.00;96988.88;6204412;23;20036;-69
2022/10/23 04:41:08;;;;;;;11.50;4.82;;;10.40;99.90;;;9.64;100.00;96989.53;6206627;23;20031;-69
2022/10/23 04:43:35;;;;;;;12.23;5.78;;;10.50;99.90;;;9.77;100.00;96985.44;6205805;23;20036;-69
2022/10/23 04:46:02;;;;;;;13.77;5.43;;;10.60;99.90;;;9.77;100.00;96979.44;6205994;23;20036;-70
2022/10/23 04:48:29;;;;;;;9.18;4.82;;;10.60;99.90;;;9.87;100.00;96978.03;6204525;23;20464;-70
2022/10/23 04:51:04;;;;;;;9.77;3.88;;;10.70;99.90;;;9.94;100.00;96968.22;6206279;23;20771;-71
2022/10/23 04:53:32;;;;;;;11.02;3.78;;;10.70;99.90;;;9.90;100.00;96964.09;6203763;23;20021;-71
2022/10/23 04:55:59;;;;;;;8.77;3.53;;;10.70;99.90;;;9.99;100.00;96956.72;6205476;23;20031;-70
2022/10/23 04:58:28;;;;;;;9.70;3.97;;;10.70;99.90;;;9.99;100.00;96958.44;6207373;23;20029;-71
2022/10/23 05:00:55;;;;;;;11.20;3.63;;;10.70;99.90;;;9.92;100.00;96950.16;6206435;23;20056;-70
2022/10/23 05:03:24;;;;;;;8.48;3.63;;;10.70;99.90;;;9.83;100.00;96948.03;6205903;23;20096;-71
2022/10/23 05:05:54;;;;;;;12.23;4.35;;;10.60;99.90;;;9.74;100.00;96949.31;6205632;23;20025;-70
2022/10/23 05:08:22;;;;;;;13.30;3.90;;;10.50;99.90;;;9.51;100.00;96944.41;6204927;23;20780;-71
2022/10/23 05:10:49;;;;;;;8.48;3.22;;;10.50;99.90;;;9.61;100.00;96943.88;6206115;23;20027;-70
2022/10/23 05:13:18;;;;;;;12.93;4.93;;;10.40;99.90;;;9.54;100.00;96937.34;6206120;23;20036;-71
2022/10/23 05:15:50;;;;;;;7.78;3.80;;;10.40;99.90;;;9.56;100.00;96945.03;6205140;23;20016;-70
2022/10/23 05:18:25;;;;;;;17.23;3.45;;;10.40;99.90;;;9.37;100.00;96942.47;6206451;23;20028;-71
2022/10/23 05:21:20;;;;;;;13.50;3.67;;;10.30;99.90;;;9.26;100.00;96940.41;6205557;23;20035;-71
2022/10/23 05:23:48;;;;;;;8.95;3.92;;;10.20;99.90;;;9.13;100.00;96928.97;6205968;23;20539;-71
2022/10/23 05:26:15;;;;;;;10.73;4.38;;;10.20;99.90;;;9.14;100.00;96935.81;6206343;23;20128;-71
2022/10/23 05:28:42;;;;;;;11.95;4.00;;;10.10;99.90;;;9.12;100.00;96935.03;6205223;23;20546;-71
2022/10/23 05:31:09;;;;;;;14.23;4.70;;;10.00;99.90;;;9.16;100.00;96929.63;6206457;23;20051;-70
2022/10/23 05:33:36;;;;;;;12.30;5.70;;;10.00;99.90;;;9.19;100.00;96926.91;6205507;23;20036;-71
2022/10/23 05:36:04;;;;;;;17.70;4.85;;;10.00;99.90;;;9.19;100.00;96937.28;6203858;23;20102;-71
2022/10/23 05:38:34;;;;;;;13.23;5.32;;;9.90;99.90;;;9.23;100.00;96926.75;6203870;23;20356;-71
2022/10/23 05:41:02;;;;;;;19.50;6.25;;;9.90;99.90;;;9.15;100.00;96933.16;6205945;23;20028;-71
2022/10/23 05:43:30;;;;;;;9.73;4.03;;;9.90;99.90;;;9.25;100.00;96924.94;6205348;23;20579;-71
2022/10/23 05:45:58;;;;;;;10.65;3.72;;;9.90;99.90;;;9.20;100.00;96925.16;6205792;23;20028;-71
2022/10/23 05:48:25;;;;;;;7.55;3.90;;;9.90;99.90;;;9.24;100.00;96918.06;6205104;23;20024;-71
2022/10/23 05:51:09;;;;;;;17.88;5.20;;;10.00;99.90;;;8.93;100.00;96925.53;6204345;23;20051;-70
2022/10/23 05:53:36;;;;;;;19.38;6.50;;;9.90;99.90;;;8.82;100.00;96920.03;6205637;23;20036;-70
2022/10/23 05:56:08;;;;;;;14.50;6.28;;;9.90;99.90;;;8.84;100.00;96918.19;6204157;23;20105;-70
2022/10/23 05:58:35;;;;;;;14.45;6.18;;;9.90;99.90;;;8.95;100.00;96913.38;6203349;23;20063;-71
2022/10/23 06:01:09;;;;;;;12.75;6.13;;;9.90;99.90;;;8.91;100.00;96904.06;6205255;23;20032;-71
2022/10/23 06:03:38;;;;;;;17.85;7.45;;;9.90;99.90;;;8.97;100.00;96905.53;6202387;23;20120;-70
2022/10/23 06:06:06;;;;;;;21.20;7.30;;;9.90;99.90;;;8.97;100.00;96903.78;6202614;23;20697;-70
2022/10/23 06:08:33;;;;;;;12.80;6.90;;;9.90;99.90;;;9.03;100.00;96902.66;6213689;23;20096;-70
2022/10/23 06:11:13;;;;;;;11.75;6.47;;;9.90;99.90;;;9.16;100.00;96895.97;6203283;23;20039;-71
2022/10/23 06:13:45;;;;;;;13.63;6.28;;;9.90;99.90;;;9.10;100.00;96895.44;6203460;23;20024;-71
2022/10/23 06:16:16;;;;;;;11.07;5.00;;;9.90;99.90;;;9.18;100.00;96860.50;6204587;23;20336;-71
2022/10/23 06:18:44;;;;;;;16.05;5.43;;;9.90;99.90;;;9.04;100.00;96870.69;6205044;23;20025;-71
2022/10/23 06:21:13;;;;;;;15.57;5.00;;;9.90;99.90;;;8.97;100.00;96869.31;6206827;23;20378;-71
2022/10/23 06:23:42;;;;;;;7.38;3.88;;;10.00;99.90;;;9.17;100.00;96864.00;6202046;23;20024;-71
2022/10/23 06:26:11;;;;;;;11.32;4.68;;;10.00;99.90;;;9.36;100.00;96865.69;6203495;23;20036;-71
2022/10/23 06:28:39;;;;;;;13.05;5.55;;;10.10;99.90;;;9.38;100.00;96863.88;6203950;23;20024;-71
2022/10/23 06:31:12;;;;;;;8.77;3.97;;;10.20;99.90;;;9.45;100.00;96856.66;6204735;23;20021;-70
2022/10/23 06:33:40;;;;;;;8.65;4.70;;;10.30;99.90;;;9.39;100.00;96853.41;6205095;23;20024;-70
2022/10/23 06:36:09;;;;;;;14.65;5.32;;;10.30;99.90;;;9.56;100.00;96855.19;6204188;23;20027;-71
2022/10/23 06:38:39;;;;;;;15.35;7.82;;;10.40;99.90;;;9.57;100.00;96850.84;6203382;23;20202;-70
2022/10/23 06:41:16;;;;;;;12.05;6.35;;;10.40;99.90;;;9.52;100.00;96851.06;6205527;23;20448;-71
2022/10/23 06:43:42;;;;;;;10.13;5.57;;;10.40;99.90;;;9.62;100.00;96856.63;6201144;23;20024;-71
2022/10/23 06:46:09;;;;;;;13.15;5.80;;;10.50;99.90;;;9.72;100.00;96865.63;6213562;23;20020;-70
2022/10/23 06:48:36;;;;;;;13.48;6.60;;;10.60;99.90;;;9.70;100.00;96862.28;6204908;23;20041;-71
2022/10/23 06:51:06;;;;;;;10.50;5.22;;;;;;;9.98;100.00;96866.88;6203700;23;20613;-70
2022/10/23 06:53:34;;;;;;;13.35;4.93;;;10.80;99.90;;;10.26;100.00;96863.69;6202874;23;20021;-71
2022/10/23 06:56:04;;;;;;;10.55;5.28;;;11.00;99.90;;;10.38;100.00;96856.22;6201278;23;20487;-70
2022/10/23 06:58:32;;;;;;;11.30;5.00;;;11.20;99.90;;;10.41;100.00;96866.41;6199554;23;20024;-71
2022/10/23 07:01:02;;;;;;;15.32;6.05;;;11.30;99.90;;;10.29;100.00;96854.94;6202397;23;20020;-70
2022/10/23 07:03:29;;;;;;;12.10;5.45;;;11.40;99.90;;;10.31;100.00;96862.63;6200808;23;20021;-70
2022/10/23 07:05:59;;;;;;;11.05;6.15;;;11.50;99.90;;;10.45;100.00;96863.59;6202924;23;20065;-70
2022/10/23 07:08:26;;;;;;;15.82;6.70;;;11.50;99.90;;;10.70;100.00;96864.00;6204716;23;20103;-71
2022/10/23 07:10:53;;;;;;;16.15;6.07;;;11.60;99.90;;;10.97;100.00;96857.31;6204952;23;20345;-71
2022/10/23 07:13:21;;;;;;;15.93;7.93;;;11.80;99.90;;;10.76;100.00;96859.31;6202237;23;20036;-71
2022/10/23 07:15:48;;;;;;;14.98;8.00;;;11.90;99.90;;;11.02;100.00;96857.88;6203603;23;20016;-71
2022/10/23 07:18:15;;;;;;;12.15;7.35;;;12.00;99.90;;;11.01;100.00;96860.56;6203484;23;20032;-70
2022/10/23 07:20:42;;;;;;;16.73;8.80;;;12.10;99.90;;;10.87;100.00;96856.97;6202985;23;20021;-70
2022/10/23 07:23:11;;;;;;;12.45;7.38;;;12.10;99.90;;;10.96;100.00;96867.78;6201564;23;20032;-71
2022/10/23 07:25:37;;;;;;;13.18;8.02;;;12.20;99.90;;;11.21;100.00;96855.09;6203208;23;20029;-70
2022/10/23 07:28:04;;;;;;;15.40;8.10;;;12.20;99.90;;;11.44;100.00;96853.75;6203224;23;20031;-71
2022/10/23 07:30:31;;;;;;;20.92;10.43;;;12.40;99.90;;;11.63;100.00;96843.16;6214269;23;20187;-71
2022/10/23 07:32:59;;;;;;;24.83;15.05;;;12.60;99.90;;;11.70;100.00;96848.84;6202457;23;20051;-71
2022/10/23 07:35:26;;;;;;;31.80;16.17;;;12.80;99.90;;;12.15;100.00;96839.22;6204549;23;20737;-71
2022/10/23 07:37:52;;;;;;;10.50;5.97;;;13.10;99.90;;;12.32;100.00;96835.63;6203041;23;20031;-71
2022/10/23 07:40:20;;;;;;;15.00;6.43;;;13.20;99.90;;;12.70;100.00;96833.22;6204361;23;20031;-71
2022/10/23 07:42:47;;;;;;;13.50;5.30;;;13.50;99.90;;;12.83;100.00;96822.84;6204746;23;20032;-70
2022/10/23 07:45:14;;;;;;;11.65;6.45;;;13.70;99.90;;;13.00;100.00;96815.72;6205272;23;20112;-69
2022/10/23 07:47:41;;;;;;;8.13;3.00;;;13.80;99.90;;;13.39;100.00;96809.72;6203854;23;20112;-68
2022/10/23 07:50:08;;;;;;;7.20;3.03;;;14.10;99.90;;;13.80;100.00;96806.94;6204967;23;20016;-71
2022/10/23 07:52:35;;;;;;;3.95;1.63;;;14.60;99.90;;;14.20;100.00;96798.16;6203117;23;20444;-69
2022/10/23 07:55:03;;;;;;;7.05;1.48;;;15.10;99.90;;;14.45;100.00;96807.72;6202742;23;20039;-69
2022/10/23 07:57:30;;;;;;;8.77;1.40;;;15.50;99.90;;;14.62;100.00;96799.56;6205290;23;20539;-70
2022/10/23 07:59:57;;;;;;;3.28;1.10;;;15.70;99.90;;;14.63;100.00;96819.50;6203850;23;20112;-69
2022/10/23 08:02:23;;;;;;;2.63;1.20;;;15.80;99.90;;;15.04;100.00;96831.38;6205785;23;20029;-69
2022/10/23 08:04:50;;;;;;;7.38;1.17;;;16.10;99.90;;;15.23;100.00;96836.06;6205618;23;20148;-70
2022/10/23 08:07:17;;;;;;;4.20;0.90;;;16.20;99.90;;;15.62;100.00;96852.41;6206018;23;20033;-69
2022/10/23 08:09:44;;;;;;;6.78;1.10;;;16.30;99.90;;;15.64;100.00;96853.09;6204896;23;20635;-69
2022/10/23 08:12:11;;;;;;;5.97;1.20;;;16.30;99.90;;;15.78;100.00;96872.22;6204972;23;20024;-69
2022/10/23 08:14:38;;;;;;;4.45;0.80;;;16.40;99.90;;;15.85;100.00;96874.28;6179217;23;20059;-69
2022/10/23 08:17:08;;;;;;;2.95;1.00;;;16.50;99.90;;;15.91;100.00;96880.81;6205662;23;20306;-69
2022/10/23 08:19:36;;;;;;;4.57;0.70;;;16.60;99.90;;;16.05;100.00;96882.38;6215365;23;20028;-69
2022/10/23 08:22:03;;;;;;;4.53;1.00;;;16.70;99.90;;;16.07;100.00;96880.50;6204726;23;20031;-69
2022/10/23 08:24:30;;;;;;;2.38;0.60;;;16.80;99.90;;;16.25;100.00;96883.50;6206788;23;20043;-69
2022/10/23 08:26:57;;;;;;;1.33;0.50;;;17.00;99.90;;;16.24;100.00;96893.13;6229597;23;20361;-69
2022/10/23 08:29:24;;;;;;;4.53;0.70;;;17.00;99.90;;;16.12;100.00;96901.91;6204600;23;20112;-69
2022/10/23 08:31:56;;;;;;;3.53;0.50;;;16.90;99.90;;;16.03;100.00;96902.59;6206262;23;20424;-69
2022/10/23 08:34:23;;;;;;;3.88;0.73;;;17.00;99.90;;;16.00;100.00;96915.94;6203247;23;20027;-69
2022/10/23 08:36:50;;;;;;;3.90;0.60;;;17.00;99.90;;;16.18;100.00;96924.19;6216270;23;20074;-69
2022/10/23 08:39:17;;;;;;;1.92;0.60;;;16.90;99.90;;;16.07;100.00;96917.13;6205400;23;20065;-69
2022/10/23 08:41:50;;;;;;;3.17;0.68;;;16.90;99.90;;;16.06;100.00;96946.91;6205817;23;20028;-69
2022/10/23 08:44:47;;;;;;;5.57;0.88;;;17.00;99.90;;;16.01;100.00;96949.00;6204364;23;20449;-69
2022/10/23 08:47:40;;;;;;;2.08;0.50;;;17.00;99.90;;;15.92;100.00;96947.94;6212132;23;20029;-69
2022/10/23 08:50:26;;;;;;;;;;;16.90;99.90;;;15.99;100.00;96940.47;6220545;23;20020;-69
2022/10/23 08:52:59;;;;;;;5.50;0.70;;;16.90;99.90;;;16.01;100.00;96918.44;6216310;23;20371;-69
2022/10/23 08:55:33;;;;;;;2.85;0.52;;;16.90;99.90;;;16.03;100.00;96905.22;6212412;23;20465;-69
2022/10/23 08:58:07;;;;;;;1.88;0.70;;;16.90;99.90;;;15.96;100.00;96907.47;6215780;23;20029;-69
2022/10/23 09:00:34;;;;;;;4.88;0.60;;;16.90;99.90;;;16.07;100.00;96906.66;6216098;23;20074;-69
2022/10/23 09:03:04;;;;;;;2.35;0.60;;;17.00;99.90;;;16.11;100.00;96913.34;6235193;23;20368;-70
2022/10/23 09:06:07;;;;;;;4.20;0.70;;;17.00;99.90;;;16.16;100.00;96918.22;6206643;23;20024;-69
2022/10/23 09:09:02;;;;;;;3.08;0.90;;;17.00;99.90;;;16.13;100.00;96934.19;6204988;23;20081;-69
2022/10/23 09:12:16;;;;;;;4.78;1.20;;;17.10;99.90;;;16.21;100.00;96943.09;6205939;23;20020;-69
2022/10/23 09:15:07;;;;;;;2.83;0.85;;;17.10;99.90;;;16.26;100.00;96948.84;6186203;23;20021;-69
2022/10/23 09:17:39;;;;;;;3.45;0.80;;;17.10;99.90;;;16.40;100.00;96939.09;6207517;23;20020;-69
2022/10/23 09:20:35;;;;;;;4.00;0.70;;;17.20;99.90;;;16.20;100.00;96941.44;6208378;23;20480;-69
2022/10/23 09:23:16;;;;;;;3.63;0.90;;;17.20;99.90;;;16.04;100.00;96951.41;6205733;23;20484;-69
2022/10/23 09:25:46;;;;;;;4.82;1.20;;;17.20;99.90;;;16.05;100.00;96945.22;6203525;23;20031;-69
2022/10/23 09:28:22;;;;;;;5.40;1.10;;;17.30;99.90;;;16.20;100.00;96932.78;6205717;23;20028;-69
2022/10/23 09:30:50;;;;;;;4.55;1.50;;;17.30;99.90;;;16.18;100.00;96932.88;6206963;23;20035;-69
2022/10/23 09:33:25;;;;;;;7.72;1.20;;;17.30;99.90;;;16.26;100.00;96938.38;6205513;23;20532;-69
2022/10/23 09:36:00;;;;;;;3.88;1.00;;;17.20;99.90;;;16.21;100.00;96931.81;6205142;23;20025;-70
2022/10/23 09:38:31;;;;;;;2.88;0.80;;;17.20;99.90;;;16.24;100.00;96926.34;6206675;23;20028;-70
2022/10/23 09:41:13;;;;;;;3.15;0.90;;;17.20;99.90;;;16.40;100.00;96921.63;6207294;23;20037;-70
2022/10/23 09:43:40;;;;;;;5.32;1.10;;;17.30;99.90;;;16.43;100.00;96939.69;6205469;23;20021;-67
2022/10/23 09:46:08;;;;;;;3.75;1.73;;;17.40;99.90;;;16.29;100.00;96951.22;6204971;23;20097;-67
2022/10/23 09:48:36;;;;;;;6.45;1.92;;;17.50;99.90;;;16.63;100.00;96934.72;6207746;23;20028;-67
2022/10/23 09:51:23;;;;;;;4.28;1.10;;;17.70;99.90;;;16.75;100.00;96925.91;6204343;23;20020;-67
2022/10/23 09:53:54;;;;;;;3.92;1.45;;;17.80;99.90;;;16.78;100.00;96935.31;6195679;23;20016;-67
2022/10/23 09:56:39;;;;;;;5.78;1.23;;;17.80;99.90;;;16.83;100.00;96938.44;6203949;23;20405;-67
2022/10/23 09:59:12;;;;;;;3.80;1.00;;;17.80;99.90;;;16.83;100.00;96941.91;6203070;23;20032;-67
2022/10/23 10:01:52;;;;;;;4.80;0.80;;;18.00;99.90;;;17.00;100.00;96937.13;6206182;23;20021;-67
2022/10/23 10:04:35;;;;;;;4.95;0.80;;;18.10;99.90;;;17.27;100.00;96931.47;6203749;23;20531;-67
2022/10/23 10:07:16;;;;;;;3.25;0.88;;;18.30;99.90;;;17.26;100.00;96945.53;6204971;23;20028;-67
2022/10/23 10:09:42;;;;;;;5.13;1.08;;;18.40;99.90;;;17.50;100.00;96956.69;6202483;23;20047;-67
2022/10/23 10:12:45;;;;;;;2.15;0.60;;;18.50;99.90;;;17.63;100.00;96966.19;6203483;23;20017;-67
2022/10/23 10:15:26;;;;;;;1.25;0.55;;;18.60;99.90;;;17.74;100.00;96961.75;6197140;23;20024;-67
2022/10/23 10:18:12;;;;;;;3.22;0.50;;;18.80;99.90;;;17.74;100.00;96948.63;6203208;23;20024;-67
2022/10/23 10:21:03;;;;;;;3.00;0.63;;;18.90;99.90;;;17.95;100.00;96945.25;6201961;23;20032;-67
2022/10/23 10:23:49;;;;;;;2.90;0.80;;;19.10;99.90;;;17.93;100.00;96960.28;6203411;23;20420;-67
2022/10/23 10:27:08;;;;;;;3.03;0.70;;;19.10;99.90;;;18.03;100.00;96963.81;6201541;23;20024;-67
2022/10/23 10:30:02;;;;;;;4.25;1.38;;;19.10;99.90;;;18.10;100.00;96954.44;6202555;23;20048;-67
2022/10/23 10:32:46;;;;;;;5.18;0.70;;;19.20;99.90;;;18.19;100.00;96955.47;6206534;23;20020;-67
2022/10/23 10:35:53;;;;;;;3.55;0.90;;;19.20;99.90;;;18.28;100.00;96965.22;6203530;23;20488;-67
2022/10/23 10:38:52;;;;;;;2.65;0.65;;;19.30;99.90;;;18.02;100.00;96990.19;6141340;23;20073;-67